Meteorología y climatología de Navarra
Datos de la estación - Meteo Navarra

Estación de Bera (Larrategaña) GN

Altitud 306 m.


Datos desde el 12/09/2019 hasta el 13/09/2019 en horario solar
Los datos son PROVISIONALES

Anterior Página 1 de 1 Siguiente Descargar: Formato para Excel 2000 o superior   Formato csv   Formato para OpenOffice Calc
Fecha Temperatura Humedad relativa Radiación global Insolación Precipitación Vel. viento 10 m Vel. viento 10 m Dir. viento 10 m
ºC % W/m² s l/m² m/s km/h º
12/09/2019 0:00 13.4 97 0.0 0 0.0 1.0 3.5 235
12/09/2019 0:10 13.5 97 0.0 0 0.0 0.5 1.9 235
12/09/2019 0:20 13.2 98 0.0 0 0.0 0.4 1.3 223
12/09/2019 0:30 13.1 98 0.0 0 0.0 1.2 4.3 227
12/09/2019 0:40 12.9 99 0.0 0 0.0 1.2 4.5 241
12/09/2019 0:50 12.9 99 0.0 0 0.0 0.2 0.8 280
12/09/2019 1:00 12.7 99 0.0 0 0.0 0.3 1.0 5
12/09/2019 1:10 12.7 99 0.0 0 0.0 0.4 1.4 336
12/09/2019 1:20 12.8 99 0.0 0 0.0 0.6 2.0 228
12/09/2019 1:30 12.0 99 0.0 0 0.0 1.6 5.6 241
12/09/2019 1:40 12.1 99 0.0 0 0.0 1.3 4.8 232
12/09/2019 1:50 12.2 99 0.0 0 0.0 1.3 4.6 242
12/09/2019 2:00 12.2 99 0.0 0 0.0 1.5 5.3 242
12/09/2019 2:10 11.9 99 0.0 0 0.0 1.8 6.6 237
12/09/2019 2:20 11.5 99 0.0 0 0.0 1.8 6.4 232
12/09/2019 2:30 11.2 99 0.0 0 0.0 1.5 5.4 236
12/09/2019 2:40 11.5 100 0.0 0 0.0 0.6 2.2 261
12/09/2019 2:50 11.2 100 0.0 0 0.0 0.2 0.8 245
12/09/2019 3:00 11.1 100 0.0 0 0.0 0.8 2.8 240
12/09/2019 3:10 11.2 100 0.0 0 0.0 1.0 3.7 239
12/09/2019 3:20 11.1 100 0.0 0 0.0 1.1 3.9 239
12/09/2019 3:30 11.6 100 0.0 0 0.0 0.7 2.4 209
12/09/2019 3:40 10.9 100 0.0 0 0.0 1.2 4.2 229
12/09/2019 3:50 10.5 100 0.0 0 0.0 1.5 5.4 234
12/09/2019 4:00 10.2 100 0.0 0 0.0 1.5 5.5 247
12/09/2019 4:10 10.3 100 0.0 0 0.0 0.8 2.8 348
12/09/2019 4:20 10.7 100 0.0 0 0.0 1.1 3.8 19
12/09/2019 4:30 10.6 100 0.0 0 0.0 1.3 4.6 229
12/09/2019 4:40 10.2 100 0.0 0 0.0 1.9 6.7 242
12/09/2019 4:50 10.5 100 0.0 0 0.0 1.5 5.5 238
12/09/2019 5:00 10.0 100 0.0 0 0.0 2.2 8.0 232
12/09/2019 5:10 10.0 100 0.0 0 0.0 2.6 9.3 236
12/09/2019 5:20 10.4 100 0.0 0 0.0 2.3 8.2 238
12/09/2019 5:30 10.5 100 0.0 0 0.0 0.9 3.3 246
12/09/2019 5:40 10.4 100 0.0 0 0.0 0.9 3.3 223
12/09/2019 5:50 10.5 100 0.0 0 0.0 1.8 6.5 233
12/09/2019 6:00 10.5 100 0.0 0 0.0 1.9 6.8 235
12/09/2019 6:10 10.5 100 3.4 0 0.0 2.2 7.7 228
12/09/2019 6:20 10.5 100 21.4 0 0.1 2.1 7.6 226
12/09/2019 6:30 10.6 100 39.6 0 0.0 2.1 7.6 227
12/09/2019 6:40 10.7 100 67.3 0 0.0 2.5 8.9 230
12/09/2019 6:50 10.6 100 66.7 0 0.0 1.3 4.8 238
12/09/2019 7:00 10.8 100 87.9 0 0.0 1.6 5.9 226
12/09/2019 7:10 10.8 100 148.1 356 0.0 2.0 7.3 230
12/09/2019 7:20 11.0 100 173.2 538 0.0 1.4 5.0 232
12/09/2019 7:30 11.1 100 193.5 390 0.0 0.7 2.6 230
12/09/2019 7:40 11.3 100 256.4 600 0.0 1.8 6.4 226
12/09/2019 7:50 11.3 100 236.1 530 0.0 1.5 5.5 232
12/09/2019 8:00 11.6 100 257.5 584 0.0 0.7 2.5 231
12/09/2019 8:10 11.7 100 299.4 422 0.0 0.5 1.9 238
12/09/2019 8:20 12.0 100 322.5 594 0.0 0.9 3.3 223
12/09/2019 8:30 12.1 100 382.1 600 0.0 1.2 4.5 222
12/09/2019 8:40 12.5 100 469.9 600 0.0 1.1 3.9 231
12/09/2019 8:50 12.9 100 504.4 600 0.0 0.8 2.8 223
12/09/2019 9:00 13.3 100 561.0 600 0.0 0.8 3.0 229
12/09/2019 9:10 13.6 100 586.4 600 0.0 0.8 2.8 211
12/09/2019 9:20 14.1 100 609.8 600 0.0 0.5 1.9 219
12/09/2019 9:30 14.6 99 641.3 600 0.0 0.7 2.3 25
12/09/2019 9:40 14.6 94 674.6 600 0.0 1.5 5.3 9
12/09/2019 9:50 15.2 85 683.7 600 0.0 1.2 4.4 346
12/09/2019 10:00 16.3 78 694.1 600 0.0 1.1 3.8 325
12/09/2019 10:10 17.3 73 708.9 600 0.0 1.1 3.9 333
12/09/2019 10:20 17.5 72 724.3 600 0.0 1.3 4.5 331
12/09/2019 10:30 18.0 73 742.4 600 0.0 1.6 5.6 339
12/09/2019 10:40 18.0 72 757.3 600 0.0 1.7 6.0 359
12/09/2019 10:50 17.9 72 771.7 600 0.0 1.1 4.0 344
12/09/2019 11:00 18.4 71 783.3 600 0.0 1.2 4.1 9
12/09/2019 11:10 18.9 71 793.3 600 0.0 2.6 9.5 55
12/09/2019 11:20 19.2 69 802.0 600 0.0 3.6 12.9 56
12/09/2019 11:30 19.0 71 808.0 600 0.0 3.2 11.6 37
12/09/2019 11:40 19.2 71 813.0 600 0.0 3.9 13.9 41
12/09/2019 11:50 19.3 71 816.0 600 0.0 3.9 14.0 55
12/09/2019 12:00 19.6 70 819.0 600 0.0 4.2 15.0 56
12/09/2019 12:10 19.7 71 817.0 600 0.0 4.6 16.4 55
12/09/2019 12:20 19.8 70 815.0 600 0.0 3.8 13.7 44
12/09/2019 12:30 20.2 71 809.0 600 0.0 3.5 12.5 67
12/09/2019 12:40 20.2 68 803.0 600 0.0 4.4 15.8 44
12/09/2019 12:50 20.2 67 796.5 600 0.0 3.7 13.3 42
12/09/2019 13:00 20.4 67 788.0 600 0.0 3.9 13.9 43
12/09/2019 13:10 20.5 67 778.1 600 0.0 4.2 15.0 39
12/09/2019 13:20 21.0 67 765.1 600 0.0 3.3 12.0 64
12/09/2019 13:30 21.1 68 749.6 600 0.0 2.2 7.8 5
12/09/2019 13:40 21.0 67 733.2 600 0.0 2.3 8.2 25
12/09/2019 13:50 21.1 68 717.0 600 0.0 1.8 6.5 5
12/09/2019 14:00 21.4 65 698.9 600 0.0 1.7 6.2 20
12/09/2019 14:10 21.6 65 678.9 600 0.0 1.8 6.6 358
12/09/2019 14:20 21.2 65 661.1 600 0.0 3.5 12.5 48
12/09/2019 14:30 21.2 64 643.3 600 0.0 3.3 12.0 57
12/09/2019 14:40 21.1 64 619.4 600 0.0 3.2 11.5 55
12/09/2019 14:50 21.0 65 596.7 600 0.0 3.7 13.4 44
12/09/2019 15:00 21.0 65 572.2 600 0.0 3.6 13.1 49
12/09/2019 15:10 20.9 66 545.1 600 0.0 3.5 12.6 60
12/09/2019 15:20 21.0 65 516.8 600 0.0 3.5 12.6 55
12/09/2019 15:30 20.8 67 487.2 600 0.0 4.5 16.2 47
12/09/2019 15:40 20.5 69 457.4 600 0.0 4.3 15.6 47
12/09/2019 15:50 20.4 70 429.2 600 0.0 4.1 14.9 58
12/09/2019 16:00 20.4 70 399.6 600 0.0 3.9 14.1 51
12/09/2019 16:10 20.4 70 369.2 600 0.0 3.7 13.1 50
12/09/2019 16:20 20.3 70 335.4 600 0.0 3.5 12.7 43
12/09/2019 16:30 20.3 69 303.6 600 0.0 3.3 11.9 59
12/09/2019 16:40 20.1 69 270.9 600 0.0 3.1 11.3 65
12/09/2019 16:50 19.9 69 238.8 600 0.0 2.5 9.1 52
12/09/2019 17:00 19.9 70 206.3 600 0.0 1.6 5.7 22
12/09/2019 17:10 19.7 72 173.3 600 0.0 1.5 5.2 341
12/09/2019 17:20 19.4 73 143.3 600 0.0 2.1 7.6 312
12/09/2019 17:30 19.3 74 112.7 600 0.0 1.1 4.0 296
12/09/2019 17:40 19.1 75 83.6 600 0.0 1.4 4.9 311
12/09/2019 17:50 18.2 79 31.3 50 0.0 2.8 9.9 299
12/09/2019 18:00 17.6 83 18.5 0 0.0 3.1 11.3 292
12/09/2019 18:10 17.3 84 0.8 0 0.0 2.6 9.4 297
12/09/2019 18:20 17.1 85 0.0 0 0.0 2.2 7.8 296
12/09/2019 18:30 16.9 86 0.0 0 0.0 1.6 5.9 308
12/09/2019 18:40 16.8 86 0.0 0 0.0 0.6 2.2 325
12/09/2019 18:50 16.6 87 0.0 0 0.0 0.1 0.4 304
12/09/2019 19:00 16.6 87 0.0 0 0.0 0.3 0.9 17
12/09/2019 19:10 16.4 87 0.0 0 0.0 0.4 1.3 230
12/09/2019 19:20 16.1 89 0.0 0 0.0 0.7 2.5 250
12/09/2019 19:30 16.3 88 0.0 0 0.0 1.3 4.5 227
12/09/2019 19:40 15.7 91 0.0 0 0.0 1.0 3.6 230
12/09/2019 19:50 15.7 91 0.0 0 0.0 0.3 1.0 210
12/09/2019 20:00 15.5 92 0.0 0 0.0 0.0 0.0 0
12/09/2019 20:10 15.6 92 0.0 0 0.0 0.1 0.3 45
12/09/2019 20:20 15.6 91 0.0 0 0.0 0.1 0.5 212
12/09/2019 20:30 15.4 92 0.0 0 0.0 0.8 2.8 233
12/09/2019 20:40 15.4 92 0.0 0 0.0 1.0 3.5 228
12/09/2019 20:50 15.1 92 0.0 0 0.0 1.4 5.1 233
12/09/2019 21:00 14.6 94 0.0 0 0.0 1.0 3.5 247
12/09/2019 21:10 14.7 96 0.0 0 0.0 1.3 4.6 221
12/09/2019 21:20 14.6 97 0.0 0 0.0 1.1 3.9 231
12/09/2019 21:30 14.7 97 0.0 0 0.0 1.4 5.2 231
12/09/2019 21:40 14.3 98 0.0 0 0.0 1.3 4.6 237
12/09/2019 21:50 14.3 98 0.0 0 0.0 0.8 3.0 197
12/09/2019 22:00 14.7 94 0.0 0 0.0 1.1 3.8 219
12/09/2019 22:10 14.6 95 0.0 0 0.0 0.8 2.7 240
12/09/2019 22:20 14.6 93 0.0 0 0.0 1.5 5.2 242
12/09/2019 22:30 14.5 93 0.0 0 0.0 0.8 3.0 247
12/09/2019 22:40 14.5 92 0.0 0 0.0 1.0 3.7 255
12/09/2019 22:50 14.2 95 0.0 0 0.0 0.7 2.5 14
12/09/2019 23:00 13.9 97 0.0 0 0.0 0.9 3.2 237
12/09/2019 23:10 13.4 98 0.0 0 0.0 0.9 3.1 238
12/09/2019 23:20 13.5 98 0.0 0 0.0 0.6 2.1 235
12/09/2019 23:30 13.2 98 0.0 0 0.0 1.6 5.7 230
12/09/2019 23:40 13.3 99 0.0 0 0.0 1.2 4.5 220
12/09/2019 23:50 13.3 98 0.0 0 0.0 1.3 4.6 224
Anterior Página 1 de 1 Siguiente

NOTA: Tipo de datos según el color:
   - Valores diarios o 10 minutos correctos
   - Valores diarios calculados a partir de un número de datos 10 minutos menor que 144 y mayor que 120, o de un número de datos semihorarios menor que 48 y mayor que 40 (caso de las estaciones de Riegos de Navarra y del MARM)
   - Valores diez minutos estimados


Contacto        Enlaces        Aviso legal